sensor_id;sensor_type;location;lat;lon;timestamp;P1;durP1;ratioP1;P2;durP2;ratioP2
51866;SDS011;52862;52.504;13.480;2024-03-02T00:01:26;106.87;;;48.43;;
51866;SDS011;52862;52.504;13.480;2024-03-02T00:03:53;110.03;;;47.30;;
51866;SDS011;52862;52.504;13.480;2024-03-02T00:06:21;113.83;;;48.73;;
51866;SDS011;52862;52.504;13.480;2024-03-02T00:08:47;110.97;;;49.43;;
51866;SDS011;52862;52.504;13.480;2024-03-02T00:11:14;121.27;;;48.93;;
51866;SDS011;52862;52.504;13.480;2024-03-02T00:13:42;110.17;;;48.87;;
51866;SDS011;52862;52.504;13.480;2024-03-02T00:16:08;122.20;;;50.97;;
51866;SDS011;52862;52.504;13.480;2024-03-02T00:18:36;107.60;;;49.13;;
51866;SDS011;52862;52.504;13.480;2024-03-02T00:21:05;115.27;;;48.43;;
51866;SDS011;52862;52.504;13.480;2024-03-02T00:23:35;118.87;;;51.13;;
51866;SDS011;52862;52.504;13.480;2024-03-02T00:26:03;104.90;;;49.47;;
51866;SDS011;52862;52.504;13.480;2024-03-02T00:28:31;117.43;;;49.47;;
51866;SDS011;52862;52.504;13.480;2024-03-02T00:31:01;110.43;;;50.80;;
51866;SDS011;52862;52.504;13.480;2024-03-02T00:33:31;114.67;;;52.87;;
51866;SDS011;52862;52.504;13.480;2024-03-02T00:35:59;122.43;;;50.37;;
51866;SDS011;52862;52.504;13.480;2024-03-02T00:38:26;112.87;;;50.87;;
51866;SDS011;52862;52.504;13.480;2024-03-02T00:40:54;119.90;;;50.43;;
51866;SDS011;52862;52.504;13.480;2024-03-02T00:46:21;123.43;;;48.37;;
51866;SDS011;52862;52.504;13.480;2024-03-02T00:48:53;124.27;;;51.40;;
51866;SDS011;52862;52.504;13.480;2024-03-02T00:51:21;117.97;;;51.77;;
51866;SDS011;52862;52.504;13.480;2024-03-02T00:53:48;110.47;;;51.17;;
51866;SDS011;52862;52.504;13.480;2024-03-02T00:56:17;102.63;;;50.87;;
51866;SDS011;52862;52.504;13.480;2024-03-02T00:58:43;119.13;;;51.17;;
51866;SDS011;52862;52.504;13.480;2024-03-02T01:01:10;120.87;;;55.23;;
51866;SDS011;52862;52.504;13.480;2024-03-02T01:03:37;119.90;;;51.27;;
51866;SDS011;52862;52.504;13.480;2024-03-02T01:06:04;116.57;;;50.37;;
51866;SDS011;52862;52.504;13.480;2024-03-02T01:08:33;118.87;;;49.97;;
51866;SDS011;52862;52.504;13.480;2024-03-02T01:11:00;122.37;;;53.30;;
51866;SDS011;52862;52.504;13.480;2024-03-02T01:13:27;108.67;;;51.67;;
51866;SDS011;52862;52.504;13.480;2024-03-02T01:15:54;113.70;;;53.50;;
51866;SDS011;52862;52.504;13.480;2024-03-02T01:18:21;115.00;;;54.03;;
51866;SDS011;52862;52.504;13.480;2024-03-02T01:20:48;124.37;;;55.27;;
51866;SDS011;52862;52.504;13.480;2024-03-02T01:23:17;111.83;;;53.27;;
51866;SDS011;52862;52.504;13.480;2024-03-02T01:25:45;116.00;;;53.80;;
51866;SDS011;52862;52.504;13.480;2024-03-02T01:28:12;118.10;;;52.73;;
51866;SDS011;52862;52.504;13.480;2024-03-02T01:30:39;119.70;;;56.40;;
51866;SDS011;52862;52.504;13.480;2024-03-02T01:33:06;117.97;;;53.97;;
51866;SDS011;52862;52.504;13.480;2024-03-02T01:35:33;114.73;;;54.90;;
51866;SDS011;52862;52.504;13.480;2024-03-02T01:38:00;125.47;;;56.80;;
51866;SDS011;52862;52.504;13.480;2024-03-02T01:40:27;114.47;;;52.73;;
51866;SDS011;52862;52.504;13.480;2024-03-02T01:42:54;125.37;;;56.67;;
51866;SDS011;52862;52.504;13.480;2024-03-02T01:45:21;129.80;;;54.97;;
51866;SDS011;52862;52.504;13.480;2024-03-02T01:47:48;135.90;;;59.37;;
51866;SDS011;52862;52.504;13.480;2024-03-02T01:50:16;131.77;;;57.27;;
51866;SDS011;52862;52.504;13.480;2024-03-02T01:52:51;132.77;;;59.10;;
51866;SDS011;52862;52.504;13.480;2024-03-02T01:55:18;132.03;;;58.03;;
51866;SDS011;52862;52.504;13.480;2024-03-02T01:57:44;126.07;;;56.80;;
51866;SDS011;52862;52.504;13.480;2024-03-02T02:00:13;122.97;;;56.87;;
51866;SDS011;52862;52.504;13.480;2024-03-02T02:02:41;124.07;;;57.27;;
51866;SDS011;52862;52.504;13.480;2024-03-02T02:05:08;127.03;;;59.50;;
51866;SDS011;52862;52.504;13.480;2024-03-02T02:07:35;133.53;;;59.63;;
51866;SDS011;52862;52.504;13.480;2024-03-02T02:10:02;117.23;;;57.20;;
51866;SDS011;52862;52.504;13.480;2024-03-02T02:12:29;127.60;;;56.70;;
51866;SDS011;52862;52.504;13.480;2024-03-02T02:14:56;139.83;;;58.13;;
51866;SDS011;52862;52.504;13.480;2024-03-02T02:17:23;133.63;;;59.80;;
51866;SDS011;52862;52.504;13.480;2024-03-02T02:19:49;135.10;;;59.40;;
51866;SDS011;52862;52.504;13.480;2024-03-02T02:22:17;128.50;;;57.90;;
51866;SDS011;52862;52.504;13.480;2024-03-02T02:24:44;127.40;;;58.17;;
51866;SDS011;52862;52.504;13.480;2024-03-02T02:27:10;139.90;;;59.53;;
51866;SDS011;52862;52.504;13.480;2024-03-02T02:29:38;135.13;;;58.87;;
51866;SDS011;52862;52.504;13.480;2024-03-02T02:32:05;142.33;;;57.23;;
51866;SDS011;52862;52.504;13.480;2024-03-02T02:34:32;130.27;;;56.83;;
51866;SDS011;52862;52.504;13.480;2024-03-02T02:36:59;130.03;;;56.33;;
51866;SDS011;52862;52.504;13.480;2024-03-02T02:39:26;127.63;;;58.43;;
51866;SDS011;52862;52.504;13.480;2024-03-02T02:41:53;116.47;;;57.30;;
51866;SDS011;52862;52.504;13.480;2024-03-02T02:44:20;133.47;;;57.53;;
51866;SDS011;52862;52.504;13.480;2024-03-02T02:46:47;131.53;;;57.67;;
51866;SDS011;52862;52.504;13.480;2024-03-02T02:49:13;130.07;;;57.67;;
51866;SDS011;52862;52.504;13.480;2024-03-02T02:51:40;125.97;;;57.10;;
51866;SDS011;52862;52.504;13.480;2024-03-02T02:54:07;136.07;;;58.57;;
51866;SDS011;52862;52.504;13.480;2024-03-02T02:56:34;139.00;;;58.07;;
51866;SDS011;52862;52.504;13.480;2024-03-02T02:59:01;140.80;;;60.23;;
51866;SDS011;52862;52.504;13.480;2024-03-02T03:01:28;136.03;;;60.37;;
51866;SDS011;52862;52.504;13.480;2024-03-02T03:03:55;130.10;;;56.70;;
51866;SDS011;52862;52.504;13.480;2024-03-02T03:06:21;128.53;;;57.17;;
51866;SDS011;52862;52.504;13.480;2024-03-02T03:08:48;130.93;;;58.77;;
51866;SDS011;52862;52.504;13.480;2024-03-02T03:11:15;125.13;;;58.00;;
51866;SDS011;52862;52.504;13.480;2024-03-02T03:13:42;133.67;;;59.67;;
51866;SDS011;52862;52.504;13.480;2024-03-02T03:16:09;127.17;;;56.53;;
51866;SDS011;52862;52.504;13.480;2024-03-02T03:18:36;114.50;;;58.07;;
51866;SDS011;52862;52.504;13.480;2024-03-02T03:21:04;135.73;;;56.40;;
51866;SDS011;52862;52.504;13.480;2024-03-02T03:23:30;122.63;;;56.63;;
51866;SDS011;52862;52.504;13.480;2024-03-02T03:25:57;128.03;;;56.33;;
51866;SDS011;52862;52.504;13.480;2024-03-02T03:28:24;125.80;;;55.57;;
51866;SDS011;52862;52.504;13.480;2024-03-02T03:30:51;131.70;;;56.47;;
51866;SDS011;52862;52.504;13.480;2024-03-02T03:33:18;130.73;;;57.67;;
51866;SDS011;52862;52.504;13.480;2024-03-02T03:35:45;141.40;;;58.27;;
51866;SDS011;52862;52.504;13.480;2024-03-02T03:38:14;133.37;;;58.13;;
51866;SDS011;52862;52.504;13.480;2024-03-02T03:40:41;136.47;;;57.13;;
51866;SDS011;52862;52.504;13.480;2024-03-02T03:43:08;129.97;;;56.93;;
51866;SDS011;52862;52.504;13.480;2024-03-02T03:45:34;133.60;;;58.00;;
51866;SDS011;52862;52.504;13.480;2024-03-02T03:48:02;120.13;;;55.70;;
51866;SDS011;52862;52.504;13.480;2024-03-02T03:50:29;127.13;;;54.17;;
51866;SDS011;52862;52.504;13.480;2024-03-02T03:52:55;113.47;;;52.87;;
51866;SDS011;52862;52.504;13.480;2024-03-02T03:55:22;124.03;;;53.77;;
51866;SDS011;52862;52.504;13.480;2024-03-02T03:57:49;119.73;;;54.27;;
51866;SDS011;52862;52.504;13.480;2024-03-02T04:00:15;114.23;;;52.43;;
51866;SDS011;52862;52.504;13.480;2024-03-02T04:02:42;120.20;;;52.03;;
51866;SDS011;52862;52.504;13.480;2024-03-02T04:05:10;117.47;;;54.20;;
51866;SDS011;52862;52.504;13.480;2024-03-02T04:07:38;115.87;;;53.43;;
51866;SDS011;52862;52.504;13.480;2024-03-02T04:10:06;114.50;;;51.53;;
51866;SDS011;52862;52.504;13.480;2024-03-02T04:12:34;107.20;;;52.10;;
51866;SDS011;52862;52.504;13.480;2024-03-02T04:15:02;128.03;;;53.47;;
51866;SDS011;52862;52.504;13.480;2024-03-02T04:17:30;119.70;;;52.13;;
51866;SDS011;52862;52.504;13.480;2024-03-02T04:19:58;108.27;;;52.13;;
51866;SDS011;52862;52.504;13.480;2024-03-02T04:22:25;120.30;;;53.83;;
51866;SDS011;52862;52.504;13.480;2024-03-02T04:24:52;106.33;;;50.97;;
51866;SDS011;52862;52.504;13.480;2024-03-02T04:27:19;125.13;;;53.63;;
51866;SDS011;52862;52.504;13.480;2024-03-02T04:29:46;108.40;;;50.00;;
51866;SDS011;52862;52.504;13.480;2024-03-02T04:32:12;105.57;;;49.83;;
51866;SDS011;52862;52.504;13.480;2024-03-02T04:34:39;114.03;;;53.43;;
51866;SDS011;52862;52.504;13.480;2024-03-02T04:37:06;117.17;;;49.13;;
51866;SDS011;52862;52.504;13.480;2024-03-02T04:39:35;113.20;;;50.93;;
51866;SDS011;52862;52.504;13.480;2024-03-02T04:42:01;111.43;;;51.87;;
51866;SDS011;52862;52.504;13.480;2024-03-02T04:44:28;109.90;;;51.20;;
51866;SDS011;52862;52.504;13.480;2024-03-02T04:46:55;103.67;;;49.67;;
51866;SDS011;52862;52.504;13.480;2024-03-02T04:49:22;113.63;;;51.30;;
51866;SDS011;52862;52.504;13.480;2024-03-02T04:51:48;117.60;;;50.20;;
51866;SDS011;52862;52.504;13.480;2024-03-02T04:54:15;110.70;;;50.53;;
51866;SDS011;52862;52.504;13.480;2024-03-02T04:56:43;104.00;;;49.63;;
51866;SDS011;52862;52.504;13.480;2024-03-02T04:59:10;114.13;;;52.87;;
51866;SDS011;52862;52.504;13.480;2024-03-02T05:01:37;117.20;;;51.13;;
51866;SDS011;52862;52.504;13.480;2024-03-02T05:04:04;115.43;;;50.50;;
51866;SDS011;52862;52.504;13.480;2024-03-02T05:06:30;105.87;;;50.13;;
51866;SDS011;52862;52.504;13.480;2024-03-02T05:08:57;113.80;;;50.37;;
51866;SDS011;52862;52.504;13.480;2024-03-02T05:11:24;117.03;;;51.17;;
51866;SDS011;52862;52.504;13.480;2024-03-02T05:14:11;110.00;;;52.13;;
51866;SDS011;52862;52.504;13.480;2024-03-02T05:16:38;119.10;;;52.73;;
51866;SDS011;52862;52.504;13.480;2024-03-02T05:19:05;114.13;;;52.50;;
51866;SDS011;52862;52.504;13.480;2024-03-02T05:21:32;117.87;;;51.20;;
51866;SDS011;52862;52.504;13.480;2024-03-02T05:23:59;113.30;;;51.27;;
51866;SDS011;52862;52.504;13.480;2024-03-02T05:26:26;120.10;;;49.70;;
51866;SDS011;52862;52.504;13.480;2024-03-02T05:28:53;117.67;;;50.90;;
51866;SDS011;52862;52.504;13.480;2024-03-02T05:31:20;110.77;;;49.30;;
51866;SDS011;52862;52.504;13.480;2024-03-02T05:33:47;113.73;;;52.00;;
51866;SDS011;52862;52.504;13.480;2024-03-02T05:36:14;106.03;;;50.80;;
51866;SDS011;52862;52.504;13.480;2024-03-02T05:38:41;104.57;;;48.17;;
51866;SDS011;52862;52.504;13.480;2024-03-02T05:41:08;110.47;;;49.57;;
51866;SDS011;52862;52.504;13.480;2024-03-02T05:43:35;114.83;;;49.13;;
51866;SDS011;52862;52.504;13.480;2024-03-02T05:46:02;114.17;;;49.50;;
51866;SDS011;52862;52.504;13.480;2024-03-02T05:48:31;125.30;;;52.80;;
51866;SDS011;52862;52.504;13.480;2024-03-02T05:50:58;130.97;;;51.73;;
51866;SDS011;52862;52.504;13.480;2024-03-02T05:53:25;129.37;;;51.80;;
51866;SDS011;52862;52.504;13.480;2024-03-02T05:55:52;113.70;;;51.23;;
51866;SDS011;52862;52.504;13.480;2024-03-02T05:58:21;114.67;;;51.93;;
51866;SDS011;52862;52.504;13.480;2024-03-02T06:00:58;128.37;;;56.43;;
51866;SDS011;52862;52.504;13.480;2024-03-02T06:03:25;121.07;;;53.87;;
51866;SDS011;52862;52.504;13.480;2024-03-02T06:05:52;112.13;;;53.30;;
51866;SDS011;52862;52.504;13.480;2024-03-02T06:08:19;118.33;;;53.10;;
51866;SDS011;52862;52.504;13.480;2024-03-02T06:10:46;120.77;;;51.30;;
51866;SDS011;52862;52.504;13.480;2024-03-02T06:13:13;121.33;;;54.77;;
51866;SDS011;52862;52.504;13.480;2024-03-02T06:15:40;127.63;;;53.90;;
51866;SDS011;52862;52.504;13.480;2024-03-02T06:18:07;129.13;;;55.83;;
51866;SDS011;52862;52.504;13.480;2024-03-02T06:20:33;123.13;;;53.37;;
51866;SDS011;52862;52.504;13.480;2024-03-02T06:23:03;132.10;;;55.87;;
51866;SDS011;52862;52.504;13.480;2024-03-02T06:25:31;138.67;;;56.97;;
51866;SDS011;52862;52.504;13.480;2024-03-02T06:27:57;147.10;;;55.50;;
51866;SDS011;52862;52.504;13.480;2024-03-02T06:30:24;131.03;;;55.23;;
51866;SDS011;52862;52.504;13.480;2024-03-02T06:32:51;138.80;;;58.77;;
51866;SDS011;52862;52.504;13.480;2024-03-02T06:35:18;126.93;;;53.60;;
51866;SDS011;52862;52.504;13.480;2024-03-02T06:37:45;123.30;;;54.93;;
51866;SDS011;52862;52.504;13.480;2024-03-02T06:40:12;124.63;;;55.37;;
51866;SDS011;52862;52.504;13.480;2024-03-02T06:42:39;129.40;;;56.87;;
51866;SDS011;52862;52.504;13.480;2024-03-02T06:45:06;132.87;;;55.63;;
51866;SDS011;52862;52.504;13.480;2024-03-02T06:47:33;127.27;;;54.87;;
51866;SDS011;52862;52.504;13.480;2024-03-02T06:49:59;137.13;;;55.63;;
51866;SDS011;52862;52.504;13.480;2024-03-02T06:52:26;119.20;;;54.90;;
51866;SDS011;52862;52.504;13.480;2024-03-02T06:54:53;135.57;;;57.00;;
51866;SDS011;52862;52.504;13.480;2024-03-02T06:57:20;135.57;;;57.67;;
51866;SDS011;52862;52.504;13.480;2024-03-02T06:59:47;148.43;;;56.63;;
51866;SDS011;52862;52.504;13.480;2024-03-02T07:02:15;134.67;;;56.80;;
51866;SDS011;52862;52.504;13.480;2024-03-02T07:04:42;134.50;;;57.80;;
51866;SDS011;52862;52.504;13.480;2024-03-02T07:07:10;132.00;;;56.93;;
51866;SDS011;52862;52.504;13.480;2024-03-02T07:09:37;143.27;;;56.43;;
51866;SDS011;52862;52.504;13.480;2024-03-02T07:12:04;139.83;;;57.73;;
51866;SDS011;52862;52.504;13.480;2024-03-02T07:14:31;131.50;;;55.53;;
51866;SDS011;52862;52.504;13.480;2024-03-02T07:17:16;118.77;;;53.70;;
51866;SDS011;52862;52.504;13.480;2024-03-02T07:19:43;135.00;;;56.63;;
51866;SDS011;52862;52.504;13.480;2024-03-02T07:22:10;128.23;;;54.97;;
51866;SDS011;52862;52.504;13.480;2024-03-02T07:24:41;131.97;;;58.07;;
51866;SDS011;52862;52.504;13.480;2024-03-02T07:27:08;128.47;;;56.10;;
51866;SDS011;52862;52.504;13.480;2024-03-02T07:29:36;118.00;;;53.80;;
51866;SDS011;52862;52.504;13.480;2024-03-02T07:32:03;128.63;;;56.73;;
51866;SDS011;52862;52.504;13.480;2024-03-02T07:34:30;127.43;;;55.33;;
51866;SDS011;52862;52.504;13.480;2024-03-02T07:36:57;139.17;;;57.53;;
51866;SDS011;52862;52.504;13.480;2024-03-02T07:39:24;122.53;;;55.53;;
51866;SDS011;52862;52.504;13.480;2024-03-02T07:41:51;119.03;;;52.87;;
51866;SDS011;52862;52.504;13.480;2024-03-02T07:44:18;130.80;;;54.30;;
51866;SDS011;52862;52.504;13.480;2024-03-02T07:46:46;118.10;;;52.40;;
51866;SDS011;52862;52.504;13.480;2024-03-02T07:49:13;124.53;;;54.93;;
51866;SDS011;52862;52.504;13.480;2024-03-02T07:51:39;122.47;;;53.73;;
51866;SDS011;52862;52.504;13.480;2024-03-02T07:54:06;142.37;;;55.90;;
51866;SDS011;52862;52.504;13.480;2024-03-02T07:56:33;121.90;;;52.37;;
51866;SDS011;52862;52.504;13.480;2024-03-02T07:59:00;116.87;;;52.47;;
51866;SDS011;52862;52.504;13.480;2024-03-02T08:01:27;132.77;;;53.87;;
51866;SDS011;52862;52.504;13.480;2024-03-02T08:03:56;118.93;;;52.83;;
51866;SDS011;52862;52.504;13.480;2024-03-02T08:06:24;113.57;;;50.47;;
51866;SDS011;52862;52.504;13.480;2024-03-02T08:08:53;112.00;;;51.20;;
51866;SDS011;52862;52.504;13.480;2024-03-02T08:11:20;116.67;;;53.83;;
51866;SDS011;52862;52.504;13.480;2024-03-02T08:13:47;116.27;;;52.53;;
51866;SDS011;52862;52.504;13.480;2024-03-02T08:16:14;115.70;;;51.80;;
51866;SDS011;52862;52.504;13.480;2024-03-02T08:18:41;114.27;;;52.03;;
51866;SDS011;52862;52.504;13.480;2024-03-02T08:21:09;121.53;;;50.20;;
51866;SDS011;52862;52.504;13.480;2024-03-02T08:23:35;111.50;;;50.40;;
51866;SDS011;52862;52.504;13.480;2024-03-02T08:26:03;112.83;;;51.83;;
51866;SDS011;52862;52.504;13.480;2024-03-02T08:28:30;108.70;;;48.47;;
51866;SDS011;52862;52.504;13.480;2024-03-02T08:30:57;103.93;;;47.33;;
51866;SDS011;52862;52.504;13.480;2024-03-02T08:33:23;100.60;;;45.07;;
51866;SDS011;52862;52.504;13.480;2024-03-02T08:35:50;110.57;;;49.90;;
51866;SDS011;52862;52.504;13.480;2024-03-02T08:38:18;104.37;;;46.17;;
51866;SDS011;52862;52.504;13.480;2024-03-02T08:40:45;89.73;;;44.20;;
51866;SDS011;52862;52.504;13.480;2024-03-02T08:43:13;102.27;;;46.80;;
51866;SDS011;52862;52.504;13.480;2024-03-02T08:45:40;105.83;;;46.90;;
51866;SDS011;52862;52.504;13.480;2024-03-02T08:48:07;104.77;;;46.20;;
51866;SDS011;52862;52.504;13.480;2024-03-02T08:50:34;99.87;;;45.17;;
51866;SDS011;52862;52.504;13.480;2024-03-02T08:53:01;101.03;;;48.40;;
51866;SDS011;52862;52.504;13.480;2024-03-02T08:55:29;101.10;;;43.77;;
51866;SDS011;52862;52.504;13.480;2024-03-02T08:57:56;105.07;;;48.00;;
51866;SDS011;52862;52.504;13.480;2024-03-02T09:00:23;104.23;;;45.97;;
51866;SDS011;52862;52.504;13.480;2024-03-02T09:02:50;118.63;;;50.40;;
51866;SDS011;52862;52.504;13.480;2024-03-02T09:05:17;117.60;;;49.93;;
51866;SDS011;52862;52.504;13.480;2024-03-02T09:07:44;110.57;;;50.07;;
51866;SDS011;52862;52.504;13.480;2024-03-02T09:10:10;107.70;;;49.50;;
51866;SDS011;52862;52.504;13.480;2024-03-02T09:12:38;109.50;;;49.33;;
51866;SDS011;52862;52.504;13.480;2024-03-02T09:15:05;104.80;;;49.40;;
51866;SDS011;52862;52.504;13.480;2024-03-02T09:17:32;103.30;;;48.67;;
51866;SDS011;52862;52.504;13.480;2024-03-02T09:19:59;107.80;;;46.63;;
51866;SDS011;52862;52.504;13.480;2024-03-02T09:22:26;107.70;;;48.00;;
51866;SDS011;52862;52.504;13.480;2024-03-02T09:24:53;95.17;;;45.87;;
51866;SDS011;52862;52.504;13.480;2024-03-02T09:27:19;99.83;;;45.10;;
51866;SDS011;52862;52.504;13.480;2024-03-02T09:29:47;102.33;;;44.87;;
51866;SDS011;52862;52.504;13.480;2024-03-02T09:32:14;95.93;;;42.27;;
51866;SDS011;52862;52.504;13.480;2024-03-02T09:34:41;90.40;;;42.87;;
51866;SDS011;52862;52.504;13.480;2024-03-02T09:37:08;94.50;;;44.40;;
51866;SDS011;52862;52.504;13.480;2024-03-02T09:39:35;96.43;;;42.93;;
51866;SDS011;52862;52.504;13.480;2024-03-02T09:42:02;91.50;;;43.53;;
51866;SDS011;52862;52.504;13.480;2024-03-02T09:44:31;89.07;;;38.57;;
51866;SDS011;52862;52.504;13.480;2024-03-02T09:46:59;83.97;;;39.00;;
51866;SDS011;52862;52.504;13.480;2024-03-02T09:49:26;79.97;;;41.10;;
51866;SDS011;52862;52.504;13.480;2024-03-02T09:51:53;88.90;;;37.60;;
51866;SDS011;52862;52.504;13.480;2024-03-02T09:54:21;81.13;;;36.60;;
51866;SDS011;52862;52.504;13.480;2024-03-02T09:56:49;89.40;;;38.80;;
51866;SDS011;52862;52.504;13.480;2024-03-02T09:59:17;80.37;;;37.77;;
51866;SDS011;52862;52.504;13.480;2024-03-02T10:01:58;83.40;;;36.60;;
51866;SDS011;52862;52.504;13.480;2024-03-02T10:04:26;82.53;;;35.97;;
51866;SDS011;52862;52.504;13.480;2024-03-02T10:07:09;75.90;;;35.73;;
51866;SDS011;52862;52.504;13.480;2024-03-02T10:09:39;94.10;;;37.77;;
51866;SDS011;52862;52.504;13.480;2024-03-02T10:12:07;79.17;;;33.17;;
51866;SDS011;52862;52.504;13.480;2024-03-02T10:14:35;72.30;;;31.93;;
51866;SDS011;52862;52.504;13.480;2024-03-02T10:17:02;74.27;;;33.70;;
51866;SDS011;52862;52.504;13.480;2024-03-02T10:19:30;65.53;;;33.27;;
51866;SDS011;52862;52.504;13.480;2024-03-02T10:21:59;69.70;;;32.83;;
51866;SDS011;52862;52.504;13.480;2024-03-02T10:24:34;65.03;;;32.13;;
51866;SDS011;52862;52.504;13.480;2024-03-02T10:27:06;71.93;;;31.93;;
51866;SDS011;52862;52.504;13.480;2024-03-02T10:29:36;69.73;;;32.83;;
51866;SDS011;52862;52.504;13.480;2024-03-02T10:32:05;61.87;;;29.63;;
51866;SDS011;52862;52.504;13.480;2024-03-02T10:34:34;53.60;;;28.73;;
51866;SDS011;52862;52.504;13.480;2024-03-02T10:37:02;60.07;;;27.40;;
51866;SDS011;52862;52.504;13.480;2024-03-02T10:39:31;51.17;;;26.13;;
51866;SDS011;52862;52.504;13.480;2024-03-02T10:42:01;52.77;;;26.43;;
51866;SDS011;52862;52.504;13.480;2024-03-02T10:44:29;61.90;;;26.27;;
51866;SDS011;52862;52.504;13.480;2024-03-02T10:46:56;54.27;;;25.23;;
51866;SDS011;52862;52.504;13.480;2024-03-02T10:49:27;54.97;;;24.73;;
51866;SDS011;52862;52.504;13.480;2024-03-02T10:51:54;48.00;;;24.47;;
51866;SDS011;52862;52.504;13.480;2024-03-02T10:54:21;47.30;;;22.97;;
51866;SDS011;52862;52.504;13.480;2024-03-02T10:56:52;53.07;;;23.13;;
51866;SDS011;52862;52.504;13.480;2024-03-02T10:59:23;46.60;;;23.40;;
51866;SDS011;52862;52.504;13.480;2024-03-02T11:01:55;45.63;;;23.20;;
51866;SDS011;52862;52.504;13.480;2024-03-02T11:04:29;49.67;;;23.07;;
51866;SDS011;52862;52.504;13.480;2024-03-02T11:06:58;50.03;;;24.97;;
51866;SDS011;52862;52.504;13.480;2024-03-02T11:09:28;54.80;;;22.63;;
51866;SDS011;52862;52.504;13.480;2024-03-02T11:11:56;50.03;;;24.50;;
51866;SDS011;52862;52.504;13.480;2024-03-02T11:14:29;51.63;;;23.63;;
51866;SDS011;52862;52.504;13.480;2024-03-02T11:16:58;40.77;;;21.67;;
51866;SDS011;52862;52.504;13.480;2024-03-02T11:19:25;51.07;;;24.40;;
51866;SDS011;52862;52.504;13.480;2024-03-02T11:21:54;49.60;;;24.67;;
51866;SDS011;52862;52.504;13.480;2024-03-02T11:24:28;57.10;;;24.63;;
51866;SDS011;52862;52.504;13.480;2024-03-02T11:27:03;52.80;;;23.47;;
51866;SDS011;52862;52.504;13.480;2024-03-02T11:29:43;51.17;;;23.67;;
51866;SDS011;52862;52.504;13.480;2024-03-02T11:32:14;57.33;;;21.80;;
51866;SDS011;52862;52.504;13.480;2024-03-02T11:34:47;57.23;;;22.13;;
51866;SDS011;52862;52.504;13.480;2024-03-02T11:37:16;52.70;;;22.53;;
51866;SDS011;52862;52.504;13.480;2024-03-02T11:39:44;52.63;;;25.50;;
51866;SDS011;52862;52.504;13.480;2024-03-02T11:42:11;63.37;;;25.33;;
51866;SDS011;52862;52.504;13.480;2024-03-02T11:44:41;51.13;;;24.63;;
51866;SDS011;52862;52.504;13.480;2024-03-02T11:47:10;48.57;;;24.43;;
51866;SDS011;52862;52.504;13.480;2024-03-02T11:49:40;50.07;;;24.63;;
51866;SDS011;52862;52.504;13.480;2024-03-02T11:52:09;52.97;;;24.40;;
51866;SDS011;52862;52.504;13.480;2024-03-02T11:54:37;53.13;;;23.30;;
51866;SDS011;52862;52.504;13.480;2024-03-02T11:57:05;48.43;;;23.87;;
51866;SDS011;52862;52.504;13.480;2024-03-02T11:59:32;47.23;;;23.50;;
51866;SDS011;52862;52.504;13.480;2024-03-02T12:02:00;45.83;;;22.70;;
51866;SDS011;52862;52.504;13.480;2024-03-02T12:04:28;55.77;;;23.40;;
51866;SDS011;52862;52.504;13.480;2024-03-02T12:06:57;54.67;;;21.97;;
51866;SDS011;52862;52.504;13.480;2024-03-02T12:09:26;46.17;;;21.20;;
51866;SDS011;52862;52.504;13.480;2024-03-02T12:12:03;46.57;;;21.53;;
51866;SDS011;52862;52.504;13.480;2024-03-02T12:14:31;38.07;;;19.50;;
51866;SDS011;52862;52.504;13.480;2024-03-02T12:16:58;55.20;;;20.43;;
51866;SDS011;52862;52.504;13.480;2024-03-02T12:19:25;42.77;;;21.10;;
51866;SDS011;52862;52.504;13.480;2024-03-02T12:21:52;43.37;;;21.00;;
51866;SDS011;52862;52.504;13.480;2024-03-02T12:24:20;41.63;;;20.23;;
51866;SDS011;52862;52.504;13.480;2024-03-02T12:26:48;38.83;;;20.13;;
51866;SDS011;52862;52.504;13.480;2024-03-02T12:29:16;40.53;;;19.90;;
51866;SDS011;52862;52.504;13.480;2024-03-02T12:31:44;39.47;;;19.83;;
51866;SDS011;52862;52.504;13.480;2024-03-02T12:34:11;42.97;;;20.40;;
51866;SDS011;52862;52.504;13.480;2024-03-02T12:36:39;40.73;;;20.20;;
51866;SDS011;52862;52.504;13.480;2024-03-02T12:39:07;37.20;;;19.83;;
51866;SDS011;52862;52.504;13.480;2024-03-02T12:41:35;35.77;;;19.03;;
51866;SDS011;52862;52.504;13.480;2024-03-02T12:44:03;39.10;;;18.03;;
51866;SDS011;52862;52.504;13.480;2024-03-02T12:46:30;53.13;;;20.33;;
51866;SDS011;52862;52.504;13.480;2024-03-02T12:48:57;35.90;;;18.27;;
51866;SDS011;52862;52.504;13.480;2024-03-02T12:51:27;40.07;;;17.70;;
51866;SDS011;52862;52.504;13.480;2024-03-02T12:53:54;31.03;;;17.10;;
51866;SDS011;52862;52.504;13.480;2024-03-02T12:56:21;29.97;;;16.57;;
51866;SDS011;52862;52.504;13.480;2024-03-02T12:58:48;39.03;;;17.77;;
51866;SDS011;52862;52.504;13.480;2024-03-02T13:01:20;33.43;;;17.37;;
51866;SDS011;52862;52.504;13.480;2024-03-02T13:03:48;31.27;;;15.43;;
51866;SDS011;52862;52.504;13.480;2024-03-02T13:06:16;28.63;;;15.10;;
51866;SDS011;52862;52.504;13.480;2024-03-02T13:08:44;33.77;;;16.87;;
51866;SDS011;52862;52.504;13.480;2024-03-02T13:11:12;47.00;;;18.07;;
51866;SDS011;52862;52.504;13.480;2024-03-02T13:13:39;40.30;;;16.67;;
51866;SDS011;52862;52.504;13.480;2024-03-02T13:16:07;33.00;;;16.90;;
51866;SDS011;52862;52.504;13.480;2024-03-02T13:18:36;41.90;;;18.03;;
51866;SDS011;52862;52.504;13.480;2024-03-02T13:21:04;31.37;;;16.47;;
51866;SDS011;52862;52.504;13.480;2024-03-02T13:23:31;33.40;;;16.13;;
51866;SDS011;52862;52.504;13.480;2024-03-02T13:25:57;39.07;;;14.43;;
51866;SDS011;52862;52.504;13.480;2024-03-02T13:28:24;34.37;;;16.43;;
51866;SDS011;52862;52.504;13.480;2024-03-02T13:30:51;32.95;;;16.20;;
51866;SDS011;52862;52.504;13.480;2024-03-02T13:33:18;33.80;;;18.17;;
51866;SDS011;52862;52.504;13.480;2024-03-02T13:35:48;42.67;;;18.88;;
51866;SDS011;52862;52.504;13.480;2024-03-02T13:38:15;28.27;;;15.93;;
51866;SDS011;52862;52.504;13.480;2024-03-02T13:40:42;36.38;;;15.80;;
51866;SDS011;52862;52.504;13.480;2024-03-02T13:43:09;35.43;;;16.20;;
51866;SDS011;52862;52.504;13.480;2024-03-02T13:45:37;29.10;;;15.47;;
51866;SDS011;52862;52.504;13.480;2024-03-02T13:48:04;29.10;;;15.83;;
51866;SDS011;52862;52.504;13.480;2024-03-02T13:50:31;33.77;;;16.43;;
51866;SDS011;52862;52.504;13.480;2024-03-02T13:52:59;36.50;;;16.37;;
51866;SDS011;52862;52.504;13.480;2024-03-02T13:55:26;27.90;;;14.73;;
51866;SDS011;52862;52.504;13.480;2024-03-02T13:57:52;29.90;;;14.15;;
51866;SDS011;52862;52.504;13.480;2024-03-02T14:00:19;28.25;;;13.82;;
51866;SDS011;52862;52.504;13.480;2024-03-02T14:02:46;36.05;;;15.02;;
51866;SDS011;52862;52.504;13.480;2024-03-02T14:05:15;27.95;;;15.25;;
51866;SDS011;52862;52.504;13.480;2024-03-02T14:07:42;26.92;;;14.27;;